createdAt,value
2023-01-06T00:01:34.571Z,0.50
2023-01-06T00:04:03.360Z,0.30
2023-01-06T00:06:31.906Z,0.50
2023-01-06T00:09:02.684Z,0.40
2023-01-06T00:11:31.706Z,0.50
2023-01-06T00:13:59.958Z,0.30
2023-01-06T00:16:27.643Z,0.40
2023-01-06T00:19:00.143Z,0.57
2023-01-06T00:21:28.482Z,0.32
2023-01-06T00:23:56.373Z,0.28
2023-01-06T00:26:24.298Z,0.25
2023-01-06T00:28:56.646Z,0.50
2023-01-06T00:31:29.883Z,1.67
2023-01-06T00:33:57.980Z,0.40
2023-01-06T00:36:25.692Z,0.40
2023-01-06T00:38:53.395Z,0.32
2023-01-06T00:41:40.556Z,0.22
2023-01-06T00:44:08.477Z,0.22
2023-01-06T00:46:36.252Z,0.40
2023-01-06T00:49:06.597Z,0.35
2023-01-06T00:51:38.064Z,0.32
2023-01-06T00:54:07.755Z,0.50
2023-01-06T00:56:39.857Z,0.30
2023-01-06T00:59:09.796Z,0.80
2023-01-06T01:01:38.082Z,0.22
2023-01-06T01:04:07.374Z,0.50
2023-01-06T01:06:36.576Z,0.35
2023-01-06T01:09:06.386Z,0.50
2023-01-06T01:11:53.427Z,0.20
2023-01-06T01:14:21.769Z,0.82
2023-01-06T01:16:49.548Z,0.30
2023-01-06T01:19:18.058Z,0.20
2023-01-06T01:21:46.597Z,0.25
2023-01-06T01:24:15.725Z,0.38
2023-01-06T01:26:43.870Z,0.25
2023-01-06T01:29:17.548Z,0.50
2023-01-06T01:31:45.369Z,0.30
2023-01-06T01:34:15.230Z,0.28
2023-01-06T01:36:45.343Z,0.40
2023-01-06T01:39:14.999Z,0.15
2023-01-06T01:41:43.185Z,0.40
2023-01-06T01:44:48.398Z,0.45
2023-01-06T01:47:38.672Z,0.28
2023-01-06T01:50:13.386Z,0.40
2023-01-06T01:52:45.369Z,0.35
2023-01-06T01:55:14.805Z,0.20
2023-01-06T01:57:52.088Z,0.20
2023-01-06T02:00:20.373Z,0.65
2023-01-06T02:02:48.659Z,0.40
2023-01-06T02:05:21.033Z,0.32
2023-01-06T02:07:49.142Z,0.22
2023-01-06T02:10:20.669Z,0.17
2023-01-06T02:12:54.048Z,0.30
2023-01-06T02:15:24.136Z,1.35
2023-01-06T02:18:00.693Z,0.73
2023-01-06T02:20:47.518Z,0.50
2023-01-06T02:23:24.359Z,0.40
2023-01-06T02:26:30.188Z,0.90
2023-01-06T02:29:03.591Z,0.60
2023-01-06T02:32:00.355Z,0.30
2023-01-06T02:34:30.693Z,0.30
2023-01-06T02:37:10.044Z,0.40
2023-01-06T02:39:57.418Z,0.68
2023-01-06T02:42:44.128Z,0.40
2023-01-06T02:45:19.409Z,0.65
2023-01-06T02:48:01.660Z,1.40
2023-01-06T02:50:43.875Z,0.60
2023-01-06T02:53:18.212Z,0.65
2023-01-06T02:55:51.541Z,0.47
2023-01-06T02:58:53.754Z,0.50
2023-01-06T03:01:33.422Z,0.45
2023-01-06T03:04:06.039Z,0.40
2023-01-06T03:06:37.051Z,0.60
2023-01-06T03:09:06.004Z,0.60
2023-01-06T03:11:43.837Z,0.40
2023-01-06T03:14:23.183Z,0.85
2023-01-06T03:16:50.885Z,0.50
2023-01-06T03:19:18.739Z,0.70
2023-01-06T03:21:49.055Z,0.63
2023-01-06T03:24:20.764Z,0.85
2023-01-06T03:26:51.242Z,0.65
2023-01-06T03:29:21.227Z,0.50
2023-01-06T03:32:01.017Z,0.52
2023-01-06T03:35:05.041Z,0.68
2023-01-06T03:38:10.814Z,0.50
2023-01-06T03:40:44.002Z,0.52
2023-01-06T03:43:50.957Z,0.57
2023-01-06T03:46:26.784Z,0.40
2023-01-06T03:49:15.955Z,0.40
2023-01-06T03:52:19.480Z,0.55
2023-01-06T03:57:29.322Z,0.30
2023-01-06T04:00:25.842Z,0.40
2023-01-06T04:03:00.751Z,0.47
2023-01-06T04:05:29.489Z,0.32
2023-01-06T04:07:59.294Z,1.27
2023-01-06T04:10:28.009Z,1.27
2023-01-06T04:12:59.767Z,1.38
2023-01-06T04:15:32.638Z,1.25
2023-01-06T04:18:02.440Z,0.98
2023-01-06T04:20:32.923Z,0.95
2023-01-06T04:23:13.005Z,0.88
2023-01-06T04:25:44.131Z,1.65
2023-01-06T04:28:20.454Z,1.83
2023-01-06T04:30:50.943Z,1.27
2023-01-06T04:33:18.830Z,1.00
2023-01-06T04:35:49.221Z,0.47
2023-01-06T04:38:20.026Z,0.57
2023-01-06T04:40:47.643Z,0.80
2023-01-06T04:43:16.683Z,1.80
2023-01-06T04:45:45.139Z,2.13
2023-01-06T04:48:13.449Z,2.40
2023-01-06T04:50:41.151Z,3.50
2023-01-06T04:53:11.054Z,3.97
2023-01-06T04:55:39.823Z,4.97
2023-01-06T04:58:08.364Z,3.92
2023-01-06T05:00:36.430Z,3.20
2023-01-06T05:03:04.068Z,2.72
2023-01-06T05:05:31.625Z,1.80
2023-01-06T05:07:59.219Z,3.80
2023-01-06T05:10:26.903Z,1.50
2023-01-06T05:12:54.403Z,1.25
2023-01-06T05:15:22.021Z,0.85
2023-01-06T05:17:49.619Z,1.10
2023-01-06T05:20:17.272Z,1.60
2023-01-06T05:22:44.886Z,0.82
2023-01-06T05:25:12.389Z,1.42
2023-01-06T05:27:39.958Z,1.33
2023-01-06T05:30:08.037Z,0.75
2023-01-06T05:32:35.630Z,0.98
2023-01-06T05:35:03.156Z,1.10
2023-01-06T05:37:31.074Z,0.88
2023-01-06T05:39:58.580Z,0.63
2023-01-06T05:42:26.302Z,0.73
2023-01-06T05:44:53.896Z,0.60
2023-01-06T05:47:21.415Z,0.75
2023-01-06T05:49:48.963Z,1.48
2023-01-06T05:52:16.466Z,1.38
2023-01-06T05:54:44.216Z,1.42
2023-01-06T05:57:11.834Z,0.60
2023-01-06T05:59:39.385Z,1.00
2023-01-06T06:02:07.102Z,0.90
2023-01-06T06:04:34.743Z,1.13
2023-01-06T06:07:02.363Z,5.25
2023-01-06T06:09:30.020Z,6.85
2023-01-06T06:11:57.527Z,6.90
2023-01-06T06:14:26.804Z,7.10
2023-01-06T06:16:55.621Z,6.47
2023-01-06T06:19:23.195Z,5.25
2023-01-06T06:21:50.795Z,4.60
2023-01-06T06:24:18.398Z,2.25
2023-01-06T06:26:45.892Z,2.00
2023-01-06T06:29:13.431Z,1.92
2023-01-06T06:31:41.077Z,2.50
2023-01-06T06:34:12.934Z,2.30
2023-01-06T06:36:40.508Z,4.00
2023-01-06T06:39:08.114Z,4.95
2023-01-06T06:41:35.837Z,7.07
2023-01-06T06:44:04.189Z,6.20
2023-01-06T06:46:31.891Z,10.40
2023-01-06T06:48:59.424Z,8.98
2023-01-06T06:51:26.981Z,10.25
2023-01-06T06:53:54.526Z,6.70
2023-01-06T06:56:22.217Z,5.05
2023-01-06T06:58:50.102Z,5.78
2023-01-06T07:01:19.880Z,2.22
2023-01-06T07:03:48.020Z,3.70
2023-01-06T07:06:19.583Z,3.88
2023-01-06T07:08:48.366Z,2.60
2023-01-06T07:11:16.041Z,3.45
2023-01-06T07:13:43.652Z,2.28
2023-01-06T07:16:11.799Z,1.75
2023-01-06T07:18:39.854Z,1.73
2023-01-06T07:21:07.796Z,2.28
2023-01-06T07:23:35.419Z,2.10
2023-01-06T07:26:04.001Z,3.35
2023-01-06T07:28:32.511Z,2.10
2023-01-06T07:31:00.890Z,2.42
2023-01-06T07:33:29.427Z,5.63
2023-01-06T07:35:58.063Z,2.92
2023-01-06T07:38:26.074Z,2.20
2023-01-06T07:40:58.377Z,1.42
2023-01-06T07:43:25.983Z,1.70
2023-01-06T07:45:53.580Z,1.15
2023-01-06T07:48:21.189Z,2.05
2023-01-06T07:50:48.834Z,1.67
2023-01-06T07:53:16.354Z,1.73
2023-01-06T07:55:51.058Z,1.42
2023-01-06T07:58:18.702Z,1.35
2023-01-06T08:00:46.525Z,1.05
2023-01-06T08:03:14.193Z,2.47
2023-01-06T08:05:43.000Z,1.25
2023-01-06T08:08:12.090Z,1.77
2023-01-06T08:10:41.365Z,1.52
2023-01-06T08:13:09.731Z,1.45
2023-01-06T08:15:38.401Z,1.20
2023-01-06T08:18:06.441Z,2.05
2023-01-06T08:20:34.533Z,1.38
2023-01-06T08:23:02.889Z,1.77
2023-01-06T08:25:30.482Z,2.95
2023-01-06T08:28:00.049Z,1.92
2023-01-06T08:30:27.907Z,1.42
2023-01-06T08:32:59.852Z,2.20
2023-01-06T08:35:28.017Z,2.83
2023-01-06T08:37:55.942Z,1.80
2023-01-06T08:40:24.086Z,2.08
2023-01-06T08:42:52.013Z,1.35
2023-01-06T08:45:19.605Z,2.00
2023-01-06T08:47:47.360Z,2.67
2023-01-06T08:50:15.018Z,2.45
2023-01-06T08:52:42.623Z,1.20
2023-01-06T08:55:10.212Z,1.38
2023-01-06T08:57:37.793Z,1.23
2023-01-06T09:00:07.311Z,0.93
2023-01-06T09:02:34.827Z,1.20
2023-01-06T09:05:02.517Z,1.33
2023-01-06T09:07:30.162Z,0.85
2023-01-06T09:09:57.953Z,0.60
2023-01-06T09:12:25.603Z,1.75
2023-01-06T09:14:53.355Z,2.67
2023-01-06T09:17:20.946Z,2.13
2023-01-06T09:19:48.565Z,1.40
2023-01-06T09:22:16.141Z,1.77
2023-01-06T09:24:43.821Z,1.25
2023-01-06T09:27:12.607Z,0.90
2023-01-06T09:29:40.176Z,1.38
2023-01-06T09:32:08.003Z,1.10
2023-01-06T09:34:35.662Z,1.40
2023-01-06T09:37:03.383Z,1.90
2023-01-06T09:39:31.117Z,0.73
2023-01-06T09:42:09.501Z,4.90
2023-01-06T09:44:48.404Z,2.20
2023-01-06T09:47:21.274Z,2.80
2023-01-06T09:50:14.181Z,1.38
2023-01-06T09:52:44.074Z,1.55
2023-01-06T09:55:11.659Z,1.02
2023-01-06T09:57:46.394Z,1.75
2023-01-06T10:00:27.447Z,1.23
2023-01-06T10:02:56.609Z,1.23
2023-01-06T10:05:41.377Z,1.15
2023-01-06T10:08:30.260Z,1.38
2023-01-06T10:11:10.410Z,1.00
2023-01-06T10:14:04.396Z,6.30
2023-01-06T10:16:37.899Z,3.40
2023-01-06T10:19:35.924Z,1.58
2023-01-06T10:22:19.793Z,2.22
2023-01-06T10:24:56.565Z,2.88
2023-01-06T10:28:10.335Z,0.95
2023-01-06T10:35:56.663Z,1.85
2023-01-06T10:38:35.819Z,0.82
2023-01-06T10:41:11.372Z,1.13
2023-01-06T10:43:39.179Z,1.50
2023-01-06T10:46:06.854Z,1.40
2023-01-06T10:48:34.983Z,2.72
2023-01-06T10:51:29.007Z,2.50
2023-01-06T10:53:58.118Z,2.30
2023-01-06T10:56:29.417Z,1.58
2023-01-06T10:59:07.095Z,1.30
2023-01-06T11:01:35.469Z,1.90
2023-01-06T11:04:09.982Z,4.03
2023-01-06T11:06:40.640Z,6.78
2023-01-06T11:09:42.219Z,2.35
2023-01-06T11:12:29.019Z,3.47
2023-01-06T11:15:00.304Z,3.53
2023-01-06T11:17:29.613Z,3.15
2023-01-06T11:20:29.084Z,3.42
2023-01-06T11:23:14.972Z,3.08
2023-01-06T11:25:42.569Z,4.93
2023-01-06T11:28:20.468Z,3.28
2023-01-06T11:30:52.473Z,4.07
2023-01-06T11:33:25.686Z,2.22
2023-01-06T11:35:55.209Z,2.28
2023-01-06T11:38:23.984Z,3.08
2023-01-06T11:40:53.676Z,3.45
2023-01-06T11:43:27.499Z,2.90
2023-01-06T11:45:55.034Z,3.70
2023-01-06T11:48:33.698Z,1.98
2023-01-06T11:51:04.241Z,5.38
2023-01-06T11:53:33.497Z,4.03
2023-01-06T11:56:04.542Z,3.83
2023-01-06T11:59:08.906Z,4.38
2023-01-06T12:02:00.834Z,2.50
2023-01-06T12:04:51.944Z,1.80
2023-01-06T12:08:00.548Z,2.38
2023-01-06T12:10:34.860Z,1.35
2023-01-06T12:13:03.240Z,2.00
2023-01-06T12:15:33.462Z,2.00
2023-01-06T12:18:20.254Z,2.65
2023-01-06T12:20:51.181Z,2.22
2023-01-06T12:23:24.785Z,2.65
2023-01-06T12:25:56.668Z,2.40
2023-01-06T12:28:35.405Z,1.70
2023-01-06T12:31:06.202Z,2.00
2023-01-06T12:33:56.787Z,1.30
2023-01-06T12:36:33.135Z,3.00
2023-01-06T12:39:11.820Z,2.17
2023-01-06T12:41:48.336Z,2.50
2023-01-06T12:44:43.337Z,1.83
2023-01-06T12:47:13.914Z,1.63
2023-01-06T12:49:49.677Z,1.50
2023-01-06T12:52:27.138Z,1.23
2023-01-06T12:54:58.030Z,1.73
2023-01-06T12:57:49.569Z,1.80
2023-01-06T13:00:32.654Z,2.00
2023-01-06T13:03:20.245Z,2.47
2023-01-06T13:05:55.431Z,3.10
2023-01-06T13:08:36.434Z,4.13
2023-01-06T13:11:07.097Z,3.58
2023-01-06T13:14:02.454Z,5.25
2023-01-06T13:16:55.725Z,5.82
2023-01-06T13:19:35.272Z,3.85
2023-01-06T13:22:06.894Z,2.83
2023-01-06T13:24:42.272Z,3.20
2023-01-06T13:27:22.344Z,3.17
2023-01-06T13:30:16.925Z,2.58
2023-01-06T13:32:59.356Z,1.77
2023-01-06T13:35:58.237Z,1.63
2023-01-06T13:38:42.301Z,2.63
2023-01-06T13:41:16.659Z,4.07
2023-01-06T13:43:48.441Z,3.92
2023-01-06T13:46:21.911Z,3.92
2023-01-06T13:48:54.845Z,3.40
2023-01-06T13:53:54.866Z,5.32
2023-01-06T13:56:22.423Z,5.35
2023-01-06T13:58:52.734Z,3.40
2023-01-06T14:01:20.519Z,4.00
2023-01-06T14:03:51.504Z,4.57
2023-01-06T14:06:22.119Z,6.60
2023-01-06T14:08:58.756Z,8.82
2023-01-06T14:11:28.521Z,7.55
2023-01-06T14:13:59.254Z,9.10
2023-01-06T14:16:44.330Z,9.90
2023-01-06T14:19:27.059Z,7.82
2023-01-06T14:22:13.214Z,8.30
2023-01-06T14:24:47.883Z,7.95
2023-01-06T14:27:15.582Z,8.70
2023-01-06T14:29:46.051Z,10.80
2023-01-06T14:32:17.502Z,11.45
2023-01-06T14:34:44.986Z,10.20
2023-01-06T14:37:15.872Z,11.63
2023-01-06T14:39:50.408Z,15.90
2023-01-06T14:42:30.155Z,15.77
2023-01-06T14:45:00.796Z,31.48
2023-01-06T14:47:34.734Z,28.95
2023-01-06T14:50:46.517Z,21.20
2023-01-06T14:53:27.872Z,29.27
2023-01-06T14:55:56.063Z,9.23
2023-01-06T14:58:32.159Z,13.55
2023-01-06T15:01:01.152Z,7.43
2023-01-06T15:03:29.983Z,11.20
2023-01-06T15:06:20.968Z,10.35
2023-01-06T15:08:49.718Z,8.10
2023-01-06T15:11:30.524Z,8.02
2023-01-06T15:13:58.253Z,9.55
2023-01-06T15:16:41.237Z,14.55
2023-01-06T15:21:46.294Z,17.48
2023-01-06T15:24:26.372Z,14.77
2023-01-06T15:26:56.646Z,9.20
2023-01-06T15:29:25.704Z,17.17
2023-01-06T15:31:55.166Z,53.45
2023-01-06T15:34:42.921Z,70.00
2023-01-06T15:37:22.455Z,26.73
2023-01-06T15:39:51.184Z,19.95
2023-01-06T15:42:22.740Z,30.95
2023-01-06T15:45:32.385Z,33.35
2023-01-06T15:48:08.437Z,10.93
2023-01-06T15:50:36.517Z,24.83
2023-01-06T15:53:07.095Z,24.23
2023-01-06T15:55:43.069Z,30.25
2023-01-06T15:58:22.851Z,34.85
2023-01-06T16:00:53.494Z,33.30
2023-01-06T16:03:24.768Z,45.92
2023-01-06T16:06:11.361Z,70.65
2023-01-06T16:08:41.067Z,50.30
2023-01-06T16:11:37.906Z,28.75
2023-01-06T16:14:07.164Z,24.95
2023-01-06T16:16:41.735Z,22.27
2023-01-06T16:19:21.688Z,21.08
2023-01-06T16:21:53.649Z,24.60
2023-01-06T16:24:26.780Z,88.90
2023-01-06T16:26:58.576Z,61.60
2023-01-06T16:29:37.520Z,80.07
2023-01-06T16:32:28.904Z,54.05
2023-01-06T16:35:02.426Z,24.98
2023-01-06T16:37:34.102Z,23.38
2023-01-06T16:40:01.869Z,25.53
2023-01-06T16:42:40.473Z,45.17
2023-01-06T16:45:32.160Z,30.95
2023-01-06T16:47:59.930Z,27.75
2023-01-06T16:50:37.057Z,22.98
2023-01-06T16:53:11.054Z,20.13
2023-01-06T16:55:40.203Z,20.25
2023-01-06T16:58:19.535Z,16.45
2023-01-06T17:00:52.067Z,16.42
2023-01-06T17:03:25.761Z,11.50
2023-01-06T17:05:53.852Z,15.80
2023-01-06T17:08:31.889Z,15.43
2023-01-06T17:11:01.495Z,13.75
2023-01-06T17:13:35.308Z,11.15
2023-01-06T17:16:16.679Z,10.07
2023-01-06T17:18:59.590Z,8.77
2023-01-06T17:21:33.934Z,8.05
2023-01-06T17:24:25.674Z,13.55
2023-01-06T17:27:00.271Z,16.38
2023-01-06T17:29:33.095Z,21.10
2023-01-06T17:34:33.738Z,16.88
2023-01-06T17:37:15.040Z,15.40
2023-01-06T17:39:44.761Z,14.27
2023-01-06T17:42:12.332Z,15.10
2023-01-06T17:44:42.838Z,15.70
2023-01-06T17:47:16.454Z,18.23
2023-01-06T17:49:51.075Z,28.55
2023-01-06T17:52:24.131Z,26.17
2023-01-06T17:55:20.353Z,24.70
2023-01-06T17:57:48.040Z,35.83
2023-01-06T18:00:26.010Z,30.60
2023-01-06T18:03:02.031Z,35.70
2023-01-06T18:05:35.733Z,31.90
2023-01-06T18:08:06.447Z,35.35
2023-01-06T18:10:36.394Z,31.63
2023-01-06T18:13:37.688Z,27.73
2023-01-06T18:16:32.062Z,27.73
2023-01-06T18:19:14.611Z,29.02
2023-01-06T18:21:42.452Z,27.20
2023-01-06T18:24:38.635Z,27.40
2023-01-06T18:27:15.213Z,27.70
2023-01-06T18:29:44.489Z,24.92
2023-01-06T18:32:21.616Z,24.38
2023-01-06T18:34:51.828Z,27.00
2023-01-06T18:37:32.897Z,27.13
2023-01-06T18:40:13.158Z,20.42
2023-01-06T18:42:44.546Z,39.22
2023-01-06T18:45:12.527Z,17.75
2023-01-06T18:47:42.243Z,16.60
2023-01-06T18:50:30.445Z,8.85
2023-01-06T18:53:14.635Z,6.53
2023-01-06T18:55:47.802Z,9.95
2023-01-06T18:58:25.404Z,11.05
2023-01-06T19:00:56.212Z,10.60
2023-01-06T19:03:43.378Z,13.57
2023-01-06T19:06:17.459Z,11.48
2023-01-06T19:08:49.300Z,12.55
2023-01-06T19:11:24.615Z,11.23
2023-01-06T19:14:00.975Z,5.90
2023-01-06T19:16:35.309Z,7.45
2023-01-06T19:19:27.776Z,5.55
2023-01-06T19:22:25.940Z,7.87
2023-01-06T19:25:16.374Z,7.90
2023-01-06T19:27:49.797Z,6.07
2023-01-06T19:30:26.359Z,5.55
2023-01-06T19:32:53.894Z,3.10
2023-01-06T19:35:25.902Z,4.38
2023-01-06T19:38:02.631Z,3.50
2023-01-06T19:40:31.794Z,3.97
2023-01-06T19:43:11.547Z,8.07
2023-01-06T19:45:39.259Z,7.43
2023-01-06T19:48:36.054Z,6.93
2023-01-06T19:51:33.902Z,9.18
2023-01-06T19:54:26.500Z,9.32
2023-01-06T19:56:56.099Z,13.25
2023-01-06T19:59:26.925Z,10.85
2023-01-06T20:01:58.056Z,12.25
2023-01-06T20:04:27.201Z,12.90
2023-01-06T20:06:55.373Z,10.25
2023-01-06T20:09:23.029Z,8.93
2023-01-06T20:11:52.016Z,8.43
2023-01-06T20:14:20.533Z,10.93
2023-01-06T20:16:48.964Z,13.43
2023-01-06T20:19:16.960Z,18.25
2023-01-06T20:21:45.006Z,30.58
2023-01-06T20:24:15.904Z,22.60
2023-01-06T20:26:43.739Z,30.70
2023-01-06T20:29:11.831Z,21.52
2023-01-06T20:31:42.655Z,22.38
2023-01-06T20:34:10.337Z,17.35
2023-01-06T20:36:38.361Z,14.60
2023-01-06T20:39:06.285Z,15.15
2023-01-06T20:41:34.135Z,14.25
2023-01-06T20:44:02.206Z,9.50
2023-01-06T20:46:30.575Z,13.57
2023-01-06T20:48:59.685Z,18.75
2023-01-06T20:51:27.408Z,20.58
2023-01-06T20:53:57.066Z,23.27
2023-01-06T20:56:24.993Z,28.15
2023-01-06T20:58:52.676Z,31.42
2023-01-06T21:01:20.676Z,27.95
2023-01-06T21:03:48.416Z,32.85
2023-01-06T21:06:16.879Z,34.08
2023-01-06T21:08:44.548Z,37.95
2023-01-06T21:11:12.186Z,34.17
2023-01-06T21:13:40.061Z,38.47
2023-01-06T21:16:07.987Z,28.15
2023-01-06T21:18:35.578Z,22.88
2023-01-06T21:21:03.200Z,19.92
2023-01-06T21:23:30.774Z,16.00
2023-01-06T21:25:58.403Z,11.82
2023-01-06T21:28:26.250Z,6.15
2023-01-06T21:30:53.885Z,2.65
2023-01-06T21:33:21.928Z,3.75
2023-01-06T21:35:49.965Z,3.90
2023-01-06T21:38:17.658Z,3.72
2023-01-06T21:40:45.223Z,3.92
2023-01-06T21:43:12.773Z,13.40
2023-01-06T21:45:42.289Z,15.38
2023-01-06T21:48:11.556Z,19.50
2023-01-06T21:50:42.116Z,17.80
2023-01-06T21:53:11.113Z,18.70
2023-01-06T21:55:39.265Z,17.10
2023-01-06T21:58:06.910Z,13.98
2023-01-06T22:00:34.503Z,11.90
2023-01-06T22:03:02.218Z,15.43
2023-01-06T22:05:29.848Z,21.33
2023-01-06T22:07:57.606Z,16.85
2023-01-06T22:10:26.343Z,40.42
2023-01-06T22:12:56.829Z,50.88
2023-01-06T22:15:24.945Z,45.22
2023-01-06T22:17:56.579Z,34.33
2023-01-06T22:20:25.409Z,30.02
2023-01-06T22:22:53.064Z,20.35
2023-01-06T22:25:20.670Z,18.95
2023-01-06T22:27:48.220Z,19.30
2023-01-06T22:30:15.993Z,15.73
2023-01-06T22:32:45.571Z,17.55
2023-01-06T22:35:14.982Z,18.35
2023-01-06T22:37:43.244Z,15.63
2023-01-06T22:40:12.957Z,16.98
2023-01-06T22:42:41.106Z,15.05
2023-01-06T22:45:09.977Z,8.75
2023-01-06T22:47:37.589Z,6.90
2023-01-06T22:50:06.444Z,4.80
2023-01-06T22:52:34.139Z,4.53
2023-01-06T22:55:01.859Z,5.93
2023-01-06T22:57:29.469Z,5.43
2023-01-06T22:59:58.510Z,5.28
2023-01-06T23:02:26.584Z,5.57
2023-01-06T23:04:54.406Z,4.30
2023-01-06T23:07:22.355Z,6.47
2023-01-06T23:09:49.976Z,6.70
2023-01-06T23:12:17.539Z,6.95
2023-01-06T23:14:45.207Z,4.93
2023-01-06T23:17:13.092Z,5.35
2023-01-06T23:19:40.680Z,5.10
2023-01-06T23:22:08.219Z,5.82
2023-01-06T23:24:35.836Z,5.85
2023-01-06T23:27:03.801Z,4.32
2023-01-06T23:29:31.719Z,7.43
2023-01-06T23:31:59.297Z,4.75
2023-01-06T23:34:29.082Z,5.13
2023-01-06T23:36:56.983Z,4.15
2023-01-06T23:39:24.608Z,3.95
2023-01-06T23:41:54.516Z,3.63
2023-01-06T23:44:22.186Z,3.58
2023-01-06T23:46:49.781Z,4.13
2023-01-06T23:49:18.030Z,3.80
2023-01-06T23:51:46.267Z,3.40
2023-01-06T23:54:14.223Z,4.25
2023-01-06T23:56:42.101Z,3.97
2023-01-06T23:59:12.193Z,4.50
